createdAt,value
2023-03-17T00:00:13.378Z,1009.67
2023-03-17T00:01:13.691Z,1009.65
2023-03-17T00:02:13.908Z,1009.59
2023-03-17T00:03:12.959Z,1009.61
2023-03-17T00:04:12.883Z,1009.63
2023-03-17T00:05:12.881Z,1009.68
2023-03-17T00:06:12.879Z,1009.61
2023-03-17T00:07:13.942Z,1009.56
2023-03-17T00:08:12.977Z,1009.62
2023-03-17T00:09:12.985Z,1009.61
2023-03-17T00:10:13.297Z,1009.59
2023-03-17T00:11:13.538Z,1009.60
2023-03-17T00:12:13.750Z,1009.58
2023-03-17T00:13:13.673Z,1009.63
2023-03-17T00:14:13.817Z,1009.61
2023-03-17T00:15:16.117Z,1009.61
2023-03-17T00:16:13.489Z,1009.64
2023-03-17T00:17:13.747Z,1009.62
2023-03-17T00:18:14.068Z,1009.63
2023-03-17T00:19:14.521Z,1009.63
2023-03-17T00:20:13.623Z,1009.61
2023-03-17T00:21:13.646Z,1009.56
2023-03-17T00:22:13.619Z,1009.61
2023-03-17T00:23:13.613Z,1009.56
2023-03-17T00:24:15.236Z,1009.61
2023-03-17T00:25:13.409Z,1009.55
2023-03-17T00:26:13.333Z,1009.62
2023-03-17T00:27:13.371Z,1009.65
2023-03-17T00:28:13.426Z,1009.65
2023-03-17T00:29:13.497Z,1009.68
2023-03-17T00:30:13.618Z,1009.69
2023-03-17T00:31:13.644Z,1009.81
2023-03-17T00:32:13.546Z,1009.76
2023-03-17T00:33:13.637Z,1009.88
2023-03-17T00:34:13.881Z,1009.83
2023-03-17T00:35:13.945Z,1009.88
2023-03-17T00:36:13.152Z,1009.98
2023-03-17T00:37:13.196Z,1009.89
2023-03-17T00:38:13.045Z,1009.88
2023-03-17T00:40:13.031Z,1009.90
2023-03-17T00:41:13.527Z,1009.90
2023-03-17T00:42:13.460Z,1009.86
2023-03-17T00:43:13.546Z,1009.90
2023-03-17T00:44:13.540Z,1009.86
2023-03-17T00:45:13.589Z,1009.85
2023-03-17T00:46:14.015Z,1009.83
2023-03-17T00:47:13.308Z,1009.76
2023-03-17T00:48:13.378Z,1009.82
2023-03-17T00:49:13.670Z,1009.81
2023-03-17T00:50:13.871Z,1009.86
2023-03-17T00:51:14.140Z,1009.77
2023-03-17T00:52:13.016Z,1009.72
2023-03-17T00:53:13.405Z,1009.73
2023-03-17T00:54:13.582Z,1009.72
2023-03-17T00:55:14.087Z,1009.67
2023-03-17T00:56:13.124Z,1009.67
2023-03-17T00:57:13.567Z,1009.68
2023-03-17T00:58:14.047Z,1009.75
2023-03-17T00:59:13.407Z,1009.76
2023-03-17T01:00:13.900Z,1009.79
2023-03-17T01:01:13.144Z,1009.85
2023-03-17T01:02:13.647Z,1009.86
2023-03-17T01:03:14.066Z,1009.90
2023-03-17T01:04:13.434Z,1009.96
2023-03-17T01:05:13.724Z,1009.91
2023-03-17T01:06:13.970Z,1009.93
2023-03-17T01:07:13.043Z,1009.92
2023-03-17T01:08:13.120Z,1009.89
2023-03-17T01:09:13.244Z,1009.87
2023-03-17T01:10:13.419Z,1009.87
2023-03-17T01:11:13.752Z,1009.83
2023-03-17T01:12:13.662Z,1009.78
2023-03-17T01:13:13.814Z,1009.69
2023-03-17T01:14:13.725Z,1009.68
2023-03-17T01:15:13.781Z,1009.66
2023-03-17T01:16:14.045Z,1009.63
2023-03-17T01:17:13.254Z,1009.70
2023-03-17T01:18:13.624Z,1009.75
2023-03-17T01:19:14.013Z,1009.68
2023-03-17T01:20:13.079Z,1009.67
2023-03-17T01:21:13.317Z,1009.69
2023-03-17T01:22:13.570Z,1009.68
2023-03-17T01:23:14.164Z,1009.69
2023-03-17T01:24:13.383Z,1009.69
2023-03-17T01:25:13.522Z,1009.62
2023-03-17T01:26:13.657Z,1009.61
2023-03-17T01:27:13.883Z,1009.64
2023-03-17T01:28:13.179Z,1009.65
2023-03-17T01:29:13.951Z,1009.65
2023-03-17T01:30:13.054Z,1009.65
2023-03-17T01:31:13.053Z,1009.66
2023-03-17T01:32:13.030Z,1009.64
2023-03-17T01:33:13.244Z,1009.68
2023-03-17T01:34:13.545Z,1009.73
2023-03-17T01:35:13.725Z,1009.70
2023-03-17T01:36:14.088Z,1009.68
2023-03-17T01:37:13.179Z,1009.68
2023-03-17T01:38:13.376Z,1009.71
2023-03-17T01:39:13.276Z,1009.74
2023-03-17T01:40:13.367Z,1009.80
2023-03-17T01:41:13.207Z,1009.84
2023-03-17T01:42:13.198Z,1009.82
2023-03-17T01:43:13.276Z,1009.78
2023-03-17T01:44:13.430Z,1009.77
2023-03-17T01:45:13.380Z,1009.73
2023-03-17T01:46:13.774Z,1009.75
2023-03-17T01:47:14.076Z,1009.69
2023-03-17T01:48:13.237Z,1009.67
2023-03-17T01:49:13.439Z,1009.65
2023-03-17T01:50:13.545Z,1009.65
2023-03-17T01:51:13.515Z,1009.61
2023-03-17T01:52:13.625Z,1009.53
2023-03-17T01:53:13.923Z,1009.56
2023-03-17T01:54:12.842Z,1009.52
2023-03-17T01:55:13.929Z,1009.48
2023-03-17T01:56:13.294Z,1009.45
2023-03-17T01:57:13.292Z,1009.44
2023-03-17T01:58:13.572Z,1009.38
2023-03-17T01:59:13.892Z,1009.38
2023-03-17T02:00:12.811Z,1009.38
2023-03-17T02:01:14.396Z,1009.33
2023-03-17T02:02:13.721Z,1009.25
2023-03-17T02:03:15.021Z,1009.30
2023-03-17T02:04:13.048Z,1009.32
2023-03-17T02:05:13.039Z,1009.26
2023-03-17T02:06:13.049Z,1009.27
2023-03-17T02:07:13.805Z,1009.22
2023-03-17T02:08:13.322Z,1009.20
2023-03-17T02:09:13.678Z,1009.18
2023-03-17T02:10:13.654Z,1009.14
2023-03-17T02:11:13.636Z,1009.18
2023-03-17T02:12:13.768Z,1009.09
2023-03-17T02:13:13.702Z,1009.02
2023-03-17T02:14:13.735Z,1008.98
2023-03-17T02:15:13.833Z,1008.96
2023-03-17T02:16:14.010Z,1008.98
2023-03-17T02:17:12.942Z,1008.99
2023-03-17T02:18:13.055Z,1008.99
2023-03-17T02:19:13.408Z,1008.96
2023-03-17T02:20:13.322Z,1008.89
2023-03-17T02:21:13.463Z,1008.88
2023-03-17T02:22:13.337Z,1008.88
2023-03-17T02:23:13.425Z,1008.85
2023-03-17T02:24:13.481Z,1008.86
2023-03-17T02:25:13.543Z,1008.83
2023-03-17T02:26:13.912Z,1008.83
2023-03-17T02:27:13.132Z,1008.77
2023-03-17T02:28:13.577Z,1008.77
2023-03-17T02:29:13.859Z,1008.75
2023-03-17T02:30:14.137Z,1008.74
2023-03-17T02:31:13.364Z,1008.77
2023-03-17T02:32:13.609Z,1008.73
2023-03-17T02:33:13.779Z,1008.72
2023-03-17T02:34:13.844Z,1008.74
2023-03-17T02:35:13.998Z,1008.79
2023-03-17T02:36:13.063Z,1008.72
2023-03-17T02:37:13.301Z,1008.71
2023-03-17T02:38:13.335Z,1008.76
2023-03-17T02:39:13.655Z,1008.74
2023-03-17T02:40:13.555Z,1008.77
2023-03-17T02:41:13.678Z,1008.78
2023-03-17T02:42:13.732Z,1008.76
2023-03-17T02:43:13.784Z,1008.76
2023-03-17T02:44:13.933Z,1008.77
2023-03-17T02:45:13.083Z,1008.75
2023-03-17T02:46:13.038Z,1008.73
2023-03-17T02:47:13.749Z,1008.77
2023-03-17T02:48:13.680Z,1008.73
2023-03-17T02:49:13.834Z,1008.75
2023-03-17T02:50:12.974Z,1008.76
2023-03-17T02:51:13.129Z,1008.79
2023-03-17T02:52:13.129Z,1008.78
2023-03-17T02:53:13.316Z,1008.81
2023-03-17T02:54:13.231Z,1008.80
2023-03-17T02:55:13.315Z,1008.81
2023-03-17T02:56:13.518Z,1008.80
2023-03-17T02:57:13.481Z,1008.82
2023-03-17T02:58:13.509Z,1008.82
2023-03-17T02:59:13.622Z,1008.80
2023-03-17T03:00:13.804Z,1008.78
2023-03-17T03:01:14.309Z,1008.76
2023-03-17T03:02:13.494Z,1008.77
2023-03-17T03:03:13.814Z,1008.70
2023-03-17T03:04:13.917Z,1008.75
2023-03-17T03:05:12.845Z,1008.75
2023-03-17T03:06:14.160Z,1008.80
2023-03-17T03:07:13.218Z,1008.76
2023-03-17T03:08:13.306Z,1008.76
2023-03-17T03:09:13.176Z,1008.76
2023-03-17T03:10:13.491Z,1008.76
2023-03-17T03:11:13.570Z,1008.73
2023-03-17T03:12:13.494Z,1008.74
2023-03-17T03:13:13.324Z,1008.72
2023-03-17T03:14:13.297Z,1008.74
2023-03-17T03:15:13.274Z,1008.77
2023-03-17T03:16:13.390Z,1008.81
2023-03-17T03:17:13.375Z,1008.82
2023-03-17T03:18:13.424Z,1008.85
2023-03-17T03:19:13.395Z,1008.82
2023-03-17T03:20:13.378Z,1008.82
2023-03-17T03:21:13.304Z,1008.90
2023-03-17T03:22:13.175Z,1008.87
2023-03-17T03:23:13.070Z,1008.90
2023-03-17T03:24:13.025Z,1008.94
2023-03-17T03:25:12.916Z,1008.95
2023-03-17T03:26:13.043Z,1009.02
2023-03-17T03:27:13.249Z,1008.98
2023-03-17T03:28:13.355Z,1008.94
2023-03-17T03:29:13.746Z,1008.96
2023-03-17T03:30:13.657Z,1008.96
2023-03-17T03:31:13.657Z,1008.94
2023-03-17T03:32:13.562Z,1008.92
2023-03-17T03:33:13.443Z,1008.91
2023-03-17T03:34:13.612Z,1008.85
2023-03-17T03:35:13.858Z,1008.86
2023-03-17T03:36:13.815Z,1008.93
2023-03-17T03:37:14.169Z,1008.94
2023-03-17T03:38:13.155Z,1008.95
2023-03-17T03:39:14.562Z,1008.91
2023-03-17T03:40:13.587Z,1008.96
2023-03-17T03:41:13.764Z,1008.91
2023-03-17T03:42:13.643Z,1008.88
2023-03-17T03:43:22.789Z,1008.83
2023-03-17T03:44:13.970Z,1008.76
2023-03-17T03:45:12.966Z,1008.80
2023-03-17T03:46:12.963Z,1008.78
2023-03-17T03:47:13.023Z,1008.81
2023-03-17T03:48:13.245Z,1008.84
2023-03-17T03:49:13.480Z,1008.80
2023-03-17T03:50:13.583Z,1008.80
2023-03-17T03:51:13.703Z,1008.74
2023-03-17T03:52:13.787Z,1008.77
2023-03-17T03:53:13.946Z,1008.77
2023-03-17T03:54:12.930Z,1008.72
2023-03-17T03:55:13.052Z,1008.78
2023-03-17T03:56:13.027Z,1008.71
2023-03-17T03:57:12.972Z,1008.76
2023-03-17T03:58:12.936Z,1008.72
2023-03-17T03:59:12.884Z,1008.71
2023-03-17T04:00:13.039Z,1008.68
2023-03-17T04:01:13.194Z,1008.67
2023-03-17T04:02:13.501Z,1008.61
2023-03-17T04:03:13.629Z,1008.64
2023-03-17T04:04:13.540Z,1008.61
2023-03-17T04:05:13.699Z,1008.61
2023-03-17T04:06:13.750Z,1008.65
2023-03-17T04:07:13.794Z,1008.59
2023-03-17T04:08:13.690Z,1008.59
2023-03-17T04:09:13.607Z,1008.58
2023-03-17T04:10:13.514Z,1008.55
2023-03-17T04:11:13.568Z,1008.52
2023-03-17T04:12:13.539Z,1008.58
2023-03-17T04:13:13.612Z,1008.57
2023-03-17T04:14:13.873Z,1008.55
2023-03-17T04:15:14.133Z,1008.49
2023-03-17T04:16:13.522Z,1008.54
2023-03-17T04:17:13.463Z,1008.55
2023-03-17T04:18:13.548Z,1008.57
2023-03-17T04:19:13.627Z,1008.63
2023-03-17T04:20:13.537Z,1008.62
2023-03-17T04:21:13.817Z,1008.60
2023-03-17T04:22:14.188Z,1008.61
2023-03-17T04:23:13.090Z,1008.59
2023-03-17T04:24:13.018Z,1008.60
2023-03-17T04:25:13.540Z,1008.59
2023-03-17T04:26:13.602Z,1008.60
2023-03-17T04:27:13.525Z,1008.67
2023-03-17T04:28:13.426Z,1008.63
2023-03-17T04:29:13.680Z,1008.66
2023-03-17T04:30:13.548Z,1008.65
2023-03-17T04:31:13.474Z,1008.61
2023-03-17T04:32:13.757Z,1008.63
2023-03-17T04:33:13.966Z,1008.62
2023-03-17T04:34:13.257Z,1008.59
2023-03-17T04:35:13.952Z,1008.60
2023-03-17T04:36:13.409Z,1008.61
2023-03-17T04:37:13.821Z,1008.67
2023-03-17T04:38:14.064Z,1008.58
2023-03-17T04:39:13.401Z,1008.63
2023-03-17T04:40:14.019Z,1008.63
2023-03-17T04:41:12.990Z,1008.67
2023-03-17T04:42:13.140Z,1008.74
2023-03-17T04:43:13.080Z,1008.71
2023-03-17T04:44:13.214Z,1008.70
2023-03-17T04:45:13.293Z,1008.75
2023-03-17T04:46:13.396Z,1008.69
2023-03-17T04:47:13.334Z,1008.68
2023-03-17T04:48:13.364Z,1008.68
2023-03-17T04:49:13.319Z,1008.63
2023-03-17T04:50:13.508Z,1008.64
2023-03-17T04:51:13.769Z,1008.63
2023-03-17T04:52:13.892Z,1008.62
2023-03-17T04:53:12.920Z,1008.58
2023-03-17T04:54:12.973Z,1008.57
2023-03-17T04:55:13.092Z,1008.59
2023-03-17T04:56:13.196Z,1008.60
2023-03-17T04:57:13.246Z,1008.63
2023-03-17T04:58:21.143Z,1008.67
2023-03-17T04:59:13.214Z,1008.62
2023-03-17T05:00:13.255Z,1008.65
2023-03-17T05:01:13.227Z,1008.70
2023-03-17T05:02:13.155Z,1008.72
2023-03-17T05:03:26.025Z,1008.74
2023-03-17T05:04:22.092Z,1008.73
2023-03-17T05:05:13.647Z,1008.73
2023-03-17T05:06:13.751Z,1008.72
2023-03-17T05:07:14.109Z,1008.67
2023-03-17T05:08:13.058Z,1008.70
2023-03-17T05:09:13.048Z,1008.68
2023-03-17T05:10:13.012Z,1008.62
2023-03-17T05:11:12.983Z,1008.67
2023-03-17T05:12:12.891Z,1008.65
2023-03-17T05:13:12.869Z,1008.64
2023-03-17T05:14:13.849Z,1008.66
2023-03-17T05:15:14.089Z,1008.67
2023-03-17T05:16:13.096Z,1008.69
2023-03-17T05:17:13.450Z,1008.66
2023-03-17T05:18:13.389Z,1008.65
2023-03-17T05:19:13.395Z,1008.62
2023-03-17T05:20:13.327Z,1008.63
2023-03-17T05:21:13.305Z,1008.64
2023-03-17T05:22:13.340Z,1008.65
2023-03-17T05:23:13.231Z,1008.67
2023-03-17T05:24:13.147Z,1008.66
2023-03-17T05:25:13.262Z,1008.69
2023-03-17T05:26:13.325Z,1008.70
2023-03-17T05:27:13.255Z,1008.69
2023-03-17T05:28:13.252Z,1008.64
2023-03-17T05:29:13.399Z,1008.65
2023-03-17T05:30:13.404Z,1008.71
2023-03-17T05:31:13.682Z,1008.68
2023-03-17T05:32:13.599Z,1008.71
2023-03-17T05:33:13.569Z,1008.75
2023-03-17T05:34:15.035Z,1008.77
2023-03-17T05:35:13.245Z,1008.72
2023-03-17T05:36:13.425Z,1008.75
2023-03-17T05:37:13.707Z,1008.73
2023-03-17T05:38:13.680Z,1008.67
2023-03-17T05:39:14.687Z,1008.65
2023-03-17T05:40:13.803Z,1008.61
2023-03-17T05:41:13.850Z,1008.60
2023-03-17T05:42:13.920Z,1008.61
2023-03-17T05:43:14.252Z,1008.56
2023-03-17T05:44:13.432Z,1008.50
2023-03-17T05:45:13.465Z,1008.57
2023-03-17T05:46:13.950Z,1008.47
2023-03-17T05:47:12.928Z,1008.47
2023-03-17T05:48:13.210Z,1008.50
2023-03-17T05:49:13.348Z,1008.53
2023-03-17T05:50:13.645Z,1008.51
2023-03-17T05:51:14.026Z,1008.53
2023-03-17T05:52:13.350Z,1008.56
2023-03-17T05:53:13.285Z,1008.57
2023-03-17T05:54:18.423Z,1008.63
2023-03-17T05:55:13.548Z,1008.60
2023-03-17T05:56:13.503Z,1008.57
2023-03-17T05:57:13.558Z,1008.60
2023-03-17T05:58:13.456Z,1008.60
2023-03-17T05:59:13.635Z,1008.56
2023-03-17T06:00:14.293Z,1008.62
2023-03-17T06:01:13.247Z,1008.55
2023-03-17T06:02:13.288Z,1008.52
2023-03-17T06:03:13.410Z,1008.58
2023-03-17T06:04:13.343Z,1008.53
2023-03-17T06:05:13.399Z,1008.57
2023-03-17T06:06:13.357Z,1008.57
2023-03-17T06:07:13.290Z,1008.51
2023-03-17T06:08:13.433Z,1008.58
2023-03-17T06:09:13.775Z,1008.61
2023-03-17T06:10:13.790Z,1008.59
2023-03-17T06:11:13.843Z,1008.59
2023-03-17T06:12:13.788Z,1008.61
2023-03-17T06:13:13.644Z,1008.55
2023-03-17T06:14:13.993Z,1008.59
2023-03-17T06:15:12.965Z,1008.58
2023-03-17T06:16:13.026Z,1008.54
2023-03-17T06:17:13.011Z,1008.55
2023-03-17T06:18:13.023Z,1008.53
2023-03-17T06:19:12.933Z,1008.57
2023-03-17T06:20:13.070Z,1008.55
2023-03-17T06:21:13.298Z,1008.55
2023-03-17T06:22:13.323Z,1008.55
2023-03-17T06:23:13.538Z,1008.54
2023-03-17T06:24:13.459Z,1008.49
2023-03-17T06:25:14.079Z,1008.49
2023-03-17T06:26:13.142Z,1008.53
2023-03-17T06:27:13.215Z,1008.47
2023-03-17T06:28:13.403Z,1008.56
2023-03-17T06:29:14.329Z,1008.58
2023-03-17T06:30:13.699Z,1008.56
2023-03-17T06:31:13.631Z,1008.60
2023-03-17T06:32:20.710Z,1008.60
2023-03-17T06:33:13.188Z,1008.61
2023-03-17T06:34:13.301Z,1008.67
2023-03-17T06:35:13.432Z,1008.63
2023-03-17T06:36:13.757Z,1008.63
2023-03-17T06:37:13.682Z,1008.64
2023-03-17T06:38:13.627Z,1008.63
2023-03-17T06:39:13.749Z,1008.65
2023-03-17T06:40:13.930Z,1008.61
2023-03-17T06:41:13.040Z,1008.59
2023-03-17T06:42:13.093Z,1008.58
2023-03-17T06:43:13.285Z,1008.57
2023-03-17T06:44:13.533Z,1008.65
2023-03-17T06:45:13.596Z,1008.64
2023-03-17T06:46:14.104Z,1008.61
2023-03-17T06:47:13.318Z,1008.56
2023-03-17T06:48:13.411Z,1008.58
2023-03-17T06:49:13.689Z,1008.57
2023-03-17T06:50:13.935Z,1008.62
2023-03-17T06:51:12.903Z,1008.54
2023-03-17T06:52:13.154Z,1008.61
2023-03-17T06:53:13.232Z,1008.57
2023-03-17T06:54:13.232Z,1008.61
2023-03-17T06:55:13.206Z,1008.57
2023-03-17T06:56:28.905Z,1008.59
2023-03-17T06:57:14.133Z,1008.58
2023-03-17T06:58:13.390Z,1008.58
2023-03-17T06:59:13.416Z,1008.57
2023-03-17T07:00:13.664Z,1008.61
2023-03-17T07:01:13.961Z,1008.61
2023-03-17T07:02:12.893Z,1008.57
2023-03-17T07:03:17.985Z,1008.59
2023-03-17T07:04:13.116Z,1008.62
2023-03-17T07:05:13.181Z,1008.58
2023-03-17T07:06:13.196Z,1008.58
2023-03-17T07:07:13.400Z,1008.54
2023-03-17T07:08:13.451Z,1008.52
2023-03-17T07:09:13.436Z,1008.51
2023-03-17T07:10:13.503Z,1008.47
2023-03-17T07:11:13.948Z,1008.52
2023-03-17T07:12:12.956Z,1008.48
2023-03-17T07:13:13.168Z,1008.50
2023-03-17T07:14:13.145Z,1008.50
2023-03-17T07:15:13.458Z,1008.52
2023-03-17T07:16:13.405Z,1008.54
2023-03-17T07:17:13.534Z,1008.53
2023-03-17T07:18:13.687Z,1008.55
2023-03-17T07:19:13.647Z,1008.54
2023-03-17T07:20:13.992Z,1008.55
2023-03-17T07:21:13.048Z,1008.56
2023-03-17T07:22:14.352Z,1008.60
2023-03-17T07:23:13.588Z,1008.61
2023-03-17T07:24:13.856Z,1008.58
2023-03-17T07:25:14.067Z,1008.58
2023-03-17T07:26:12.979Z,1008.59
2023-03-17T07:27:13.391Z,1008.57
2023-03-17T07:28:13.260Z,1008.59
2023-03-17T07:29:13.387Z,1008.56
2023-03-17T07:30:19.090Z,1008.58
2023-03-17T07:31:14.720Z,1008.59
2023-03-17T07:32:14.220Z,1008.57
2023-03-17T07:33:13.469Z,1008.59
2023-03-17T07:34:13.498Z,1008.63
2023-03-17T07:35:13.510Z,1008.71
2023-03-17T07:36:13.660Z,1008.68
2023-03-17T07:37:13.498Z,1008.71
2023-03-17T07:38:13.766Z,1008.72
2023-03-17T07:39:13.860Z,1008.66
2023-03-17T07:40:13.856Z,1008.65
2023-03-17T07:41:13.755Z,1008.60
2023-03-17T07:42:14.002Z,1008.60
2023-03-17T07:43:13.331Z,1008.59
2023-03-17T07:44:13.354Z,1008.59
2023-03-17T07:45:13.281Z,1008.60
2023-03-17T07:46:13.387Z,1008.61
2023-03-17T07:47:13.439Z,1008.64
2023-03-17T07:48:13.489Z,1008.65
2023-03-17T07:49:13.459Z,1008.66
2023-03-17T07:50:13.836Z,1008.68
2023-03-17T07:51:14.120Z,1008.68
2023-03-17T07:52:13.146Z,1008.69
2023-03-17T07:53:13.713Z,1008.63
2023-03-17T07:54:15.077Z,1008.60
2023-03-17T07:55:13.768Z,1008.61
2023-03-17T07:56:13.894Z,1008.59
2023-03-17T07:57:13.126Z,1008.57
2023-03-17T07:58:15.729Z,1008.54
2023-03-17T07:59:13.110Z,1008.51
2023-03-17T08:00:13.239Z,1008.55
2023-03-17T08:01:13.526Z,1008.52
2023-03-17T08:02:13.651Z,1008.55
2023-03-17T08:03:13.830Z,1008.56
2023-03-17T08:04:13.902Z,1008.56
2023-03-17T08:05:14.341Z,1008.56
2023-03-17T08:06:13.796Z,1008.51
2023-03-17T08:07:13.748Z,1008.49
2023-03-17T08:08:13.740Z,1008.49
2023-03-17T08:09:14.602Z,1008.47
2023-03-17T08:10:13.618Z,1008.46
2023-03-17T08:11:14.301Z,1008.42
2023-03-17T08:12:13.860Z,1008.44
2023-03-17T08:13:13.924Z,1008.40
2023-03-17T08:14:13.195Z,1008.45
2023-03-17T08:15:13.450Z,1008.39
2023-03-17T08:16:13.915Z,1008.41
2023-03-17T08:17:12.958Z,1008.43
2023-03-17T08:18:12.890Z,1008.45
2023-03-17T08:19:12.895Z,1008.51
2023-03-17T08:20:12.978Z,1008.49
2023-03-17T08:21:14.814Z,1008.52
2023-03-17T08:22:12.877Z,1008.52
2023-03-17T08:23:13.224Z,1008.55
2023-03-17T08:24:13.186Z,1008.54
2023-03-17T08:25:14.264Z,1008.47
2023-03-17T08:26:13.426Z,1008.54
2023-03-17T08:27:13.760Z,1008.56
2023-03-17T08:28:14.212Z,1008.51
2023-03-17T08:29:13.300Z,1008.52
2023-03-17T08:30:13.572Z,1008.56
2023-03-17T08:31:14.329Z,1008.55
2023-03-17T08:32:13.231Z,1008.52
2023-03-17T08:33:13.231Z,1008.58
2023-03-17T08:34:13.162Z,1008.54
2023-03-17T08:35:13.228Z,1008.59
2023-03-17T08:36:13.196Z,1008.55
2023-03-17T08:37:13.405Z,1008.59
2023-03-17T08:38:13.466Z,1008.60
2023-03-17T08:39:13.544Z,1008.68
2023-03-17T08:40:13.826Z,1008.65
2023-03-17T08:41:13.830Z,1008.70
2023-03-17T08:42:13.891Z,1008.74
2023-03-17T08:43:12.939Z,1008.73
2023-03-17T08:44:12.974Z,1008.71
2023-03-17T08:45:12.945Z,1008.69
2023-03-17T08:46:13.285Z,1008.65
2023-03-17T08:47:13.501Z,1008.64
2023-03-17T08:48:13.459Z,1008.68
2023-03-17T08:49:13.493Z,1008.74
2023-03-17T08:50:13.685Z,1008.77
2023-03-17T08:51:13.685Z,1008.78
2023-03-17T08:52:13.848Z,1008.75
2023-03-17T08:53:13.979Z,1008.72
2023-03-17T08:54:13.519Z,1008.65
2023-03-17T08:55:13.632Z,1008.64
2023-03-17T08:56:13.765Z,1008.69
2023-03-17T08:57:15.678Z,1008.65
2023-03-17T08:58:14.155Z,1008.67
2023-03-17T08:59:13.522Z,1008.66
2023-03-17T09:00:13.524Z,1008.74
2023-03-17T09:01:14.011Z,1008.76
2023-03-17T09:02:13.110Z,1008.74
2023-03-17T09:03:13.272Z,1008.76
2023-03-17T09:04:13.226Z,1008.74
2023-03-17T09:05:13.799Z,1008.68
2023-03-17T09:06:13.758Z,1008.73
2023-03-17T09:07:13.779Z,1008.75
2023-03-17T09:08:13.825Z,1008.77
2023-03-17T09:09:13.820Z,1008.79
2023-03-17T09:10:13.754Z,1008.75
2023-03-17T09:11:13.766Z,1008.71
2023-03-17T09:12:13.802Z,1008.72
2023-03-17T09:13:13.821Z,1008.73
2023-03-17T09:14:15.198Z,1008.74
2023-03-17T09:15:13.066Z,1008.75
2023-03-17T09:16:13.146Z,1008.70
2023-03-17T09:17:13.354Z,1008.68
2023-03-17T09:18:13.551Z,1008.72
2023-03-17T09:19:13.486Z,1008.68
2023-03-17T09:20:13.388Z,1008.69
2023-03-17T09:21:13.775Z,1008.71
2023-03-17T09:22:13.842Z,1008.71
2023-03-17T09:23:13.836Z,1008.75
2023-03-17T09:24:13.988Z,1008.74
2023-03-17T09:25:13.240Z,1008.70
2023-03-17T09:26:13.222Z,1008.74
2023-03-17T09:27:13.209Z,1008.70
2023-03-17T09:28:13.466Z,1008.71
2023-03-17T09:29:13.714Z,1008.68
2023-03-17T09:30:13.811Z,1008.69
2023-03-17T09:31:13.900Z,1008.69
2023-03-17T09:32:12.993Z,1008.67
2023-03-17T09:33:13.021Z,1008.69
2023-03-17T09:34:13.042Z,1008.66
2023-03-17T09:35:13.086Z,1008.71
2023-03-17T09:36:13.148Z,1008.68
2023-03-17T09:37:13.557Z,1008.68
2023-03-17T09:38:14.306Z,1008.64
2023-03-17T09:39:13.489Z,1008.64
2023-03-17T09:40:13.582Z,1008.69
2023-03-17T09:41:14.056Z,1008.67
2023-03-17T09:42:13.198Z,1008.71
2023-03-17T09:43:13.143Z,1008.78
2023-03-17T09:44:13.181Z,1008.78
2023-03-17T09:45:13.543Z,1008.70
2023-03-17T09:46:13.749Z,1008.78
2023-03-17T09:47:13.853Z,1008.78
2023-03-17T09:48:14.122Z,1008.76
2023-03-17T09:49:13.796Z,1008.78
2023-03-17T09:50:13.749Z,1008.82
2023-03-17T09:51:13.823Z,1008.92
2023-03-17T09:52:13.988Z,1008.90
2023-03-17T09:53:13.622Z,1008.89
2023-03-17T09:54:13.656Z,1008.89
2023-03-17T09:55:13.848Z,1008.93
2023-03-17T09:56:13.788Z,1008.89
2023-03-17T09:57:14.029Z,1008.90
2023-03-17T09:58:13.083Z,1008.89
2023-03-17T09:59:13.094Z,1008.88
2023-03-17T10:00:13.121Z,1008.86
2023-03-17T10:01:13.097Z,1008.88
2023-03-17T10:02:13.165Z,1008.84
2023-03-17T10:03:13.554Z,1008.84
2023-03-17T10:04:13.734Z,1008.84
2023-03-17T10:05:18.814Z,1008.86
2023-03-17T10:06:13.832Z,1008.84
2023-03-17T10:07:13.789Z,1008.85
2023-03-17T10:08:29.368Z,1008.82
2023-03-17T10:09:13.696Z,1008.84
2023-03-17T10:10:13.689Z,1008.80
2023-03-17T10:11:14.026Z,1008.76
2023-03-17T10:12:13.335Z,1008.78
2023-03-17T10:13:13.666Z,1008.80
2023-03-17T10:14:13.650Z,1008.71
2023-03-17T10:15:13.781Z,1008.71
2023-03-17T10:16:13.946Z,1008.69
2023-03-17T10:17:12.994Z,1008.66
2023-03-17T10:18:12.942Z,1008.68
2023-03-17T10:19:12.849Z,1008.66
2023-03-17T10:20:14.210Z,1008.63
2023-03-17T10:21:14.494Z,1008.72
2023-03-17T10:22:13.890Z,1008.63
2023-03-17T10:23:13.284Z,1008.59
2023-03-17T10:24:13.373Z,1008.68
2023-03-17T10:25:13.595Z,1008.65
2023-03-17T10:26:13.529Z,1008.64
2023-03-17T10:27:13.375Z,1008.62
2023-03-17T10:28:13.671Z,1008.64
2023-03-17T10:29:14.133Z,1008.62
2023-03-17T10:30:13.286Z,1008.65
2023-03-17T10:31:13.397Z,1008.69
2023-03-17T10:32:13.409Z,1008.69
2023-03-17T10:33:13.407Z,1008.73
2023-03-17T10:34:13.626Z,1008.77
2023-03-17T10:35:13.580Z,1008.64
2023-03-17T10:36:13.838Z,1008.56
2023-03-17T10:37:12.773Z,1008.57
2023-03-17T10:38:14.699Z,1008.57
2023-03-17T10:39:13.803Z,1008.58
2023-03-17T10:40:12.864Z,1008.55
2023-03-17T10:41:12.954Z,1008.51
2023-03-17T10:42:13.161Z,1008.52
2023-03-17T10:43:13.729Z,1008.59
2023-03-17T10:44:13.852Z,1008.51
2023-03-17T10:45:14.096Z,1008.55
2023-03-17T10:46:13.403Z,1008.62
2023-03-17T10:47:13.543Z,1008.67
2023-03-17T10:48:13.791Z,1008.68
2023-03-17T10:49:13.624Z,1008.66
2023-03-17T10:50:13.710Z,1008.67
2023-03-17T10:51:14.022Z,1008.57
2023-03-17T10:52:13.059Z,1008.64
2023-03-17T10:53:13.241Z,1008.55
2023-03-17T10:54:13.578Z,1008.56
2023-03-17T10:55:13.553Z,1008.58
2023-03-17T10:56:13.576Z,1008.60
2023-03-17T10:57:13.449Z,1008.60
2023-03-17T10:58:13.597Z,1008.61
2023-03-17T10:59:13.540Z,1008.62
2023-03-17T11:00:13.554Z,1008.61
2023-03-17T11:01:13.531Z,1008.52
2023-03-17T11:02:13.521Z,1008.54
2023-03-17T11:03:13.692Z,1008.50
2023-03-17T11:04:13.640Z,1008.43
2023-03-17T11:05:13.874Z,1008.46
2023-03-17T11:06:13.940Z,1008.46
2023-03-17T11:07:13.568Z,1008.41
2023-03-17T11:08:13.717Z,1008.39
2023-03-17T11:09:13.829Z,1008.39
2023-03-17T11:10:13.759Z,1008.38
2023-03-17T11:11:14.131Z,1008.36
2023-03-17T11:12:13.120Z,1008.35
2023-03-17T11:13:13.329Z,1008.39
2023-03-17T11:14:13.679Z,1008.40
2023-03-17T11:15:13.678Z,1008.40
2023-03-17T11:16:13.879Z,1008.37
2023-03-17T11:17:12.782Z,1008.38
2023-03-17T11:18:14.282Z,1008.45
2023-03-17T11:19:13.723Z,1008.44
2023-03-17T11:20:13.915Z,1008.43
2023-03-17T11:21:12.795Z,1008.49
2023-03-17T11:22:14.240Z,1008.43
2023-03-17T11:23:13.335Z,1008.41
2023-03-17T11:24:13.634Z,1008.42
2023-03-17T11:25:13.657Z,1008.45
2023-03-17T11:26:13.925Z,1008.50
2023-03-17T11:27:13.586Z,1008.45
2023-03-17T11:28:13.684Z,1008.38
2023-03-17T11:29:14.004Z,1008.41
2023-03-17T11:30:14.666Z,1008.43
2023-03-17T11:31:13.151Z,1008.48
2023-03-17T11:32:13.378Z,1008.43
2023-03-17T11:33:13.960Z,1008.45
2023-03-17T11:34:13.153Z,1008.44
2023-03-17T11:35:13.413Z,1008.44
2023-03-17T11:36:13.303Z,1008.37
2023-03-17T11:37:13.233Z,1008.39
2023-03-17T11:38:13.252Z,1008.37
2023-03-17T11:39:13.176Z,1008.39
2023-03-17T11:40:13.564Z,1008.37
2023-03-17T11:41:13.697Z,1008.27
2023-03-17T11:42:13.953Z,1008.31
2023-03-17T11:43:12.912Z,1008.30
2023-03-17T11:44:13.295Z,1008.29
2023-03-17T11:45:13.747Z,1008.33
2023-03-17T11:46:14.095Z,1008.26
2023-03-17T11:47:13.528Z,1008.26
2023-03-17T11:48:13.857Z,1008.27
2023-03-17T11:49:13.837Z,1008.24
2023-03-17T11:50:14.167Z,1008.19
2023-03-17T11:51:13.541Z,1008.21
2023-03-17T11:52:13.559Z,1008.21
2023-03-17T11:53:13.976Z,1008.26
2023-03-17T11:54:13.109Z,1008.28
2023-03-17T11:55:13.217Z,1008.26
2023-03-17T11:56:13.212Z,1008.23
2023-03-17T11:57:13.494Z,1008.21
2023-03-17T11:58:13.492Z,1008.23
2023-03-17T11:59:13.470Z,1008.17
2023-03-17T12:00:13.591Z,1008.20
2023-03-17T12:01:13.728Z,1008.18
2023-03-17T12:02:13.674Z,1008.16
2023-03-17T12:03:14.089Z,1008.17
2023-03-17T12:04:13.119Z,1008.18
2023-03-17T12:05:13.353Z,1008.12
2023-03-17T12:06:13.697Z,1008.13